< Cyclone 198702 1987 Season Cyclone 198704 >
Cyclone 198703 (DAMIEN)
General InformationTrack Information on Google MapsDetailed Wind InformationList of All Images || ResourceGoogle EarthGE AnimationAtom FeedGeoJSON
Detalied Best Track (Time Zone = UTC)
Year Month Day Hour Lat. Long. Pressure (hPa) Wind (kt) Class Image Chart
1987 1 30 21 -14.5 124.3 998 29 2 Image --
1987 1 31 00 -14.5 124.0 998 29 2 Image --
1987 1 31 06 -14.5 123.7 997 31 2 Image --
1987 1 31 12 -14.6 123.4 996 33 2 Image --
1987 1 31 18 -14.7 123.2 995 35 3 Image --
1987 2 1 00 -14.9 123.0 994 35 3 Image --
1987 2 1 06 -15.1 123.0 992 39 3 Image --
1987 2 1 12 -15.3 123.2 992 39 3 Image --
1987 2 1 18 -15.3 123.3 990 41 3 Image --
1987 2 2 00 -15.5 123.3 988 45 3 Image --
1987 2 2 06 -15.9 123.0 986 47 3 Image --
1987 2 2 12 -16.2 122.5 984 49 4 Image --
1987 2 2 18 -16.5 122.0 982 51 4 Image --
1987 2 3 00 -16.6 121.5 980 54 4 Image --
1987 2 3 06 -16.7 120.9 980 54 4 Image --
1987 2 3 12 -17.3 120.6 982 51 4 Image --
1987 2 3 18 -17.4 119.8 983 51 4 Image --
1987 2 4 00 -17.4 118.9 983 51 4 Image --
1987 2 4 06 -17.6 118.2 985 47 3 Image --
1987 2 4 12 -17.7 117.8 987 45 3 Image --
1987 2 4 18 -17.8 117.7 989 43 3 Image --
1987 2 5 00 -18.0 117.6 991 41 3 Image --
1987 2 5 06 -18.2 117.4 992 39 3 Image --
1987 2 5 12 -18.6 117.2 992 39 3 Image --
1987 2 5 18 -18.9 117.1 992 39 3 Image --
1987 2 6 00 -19.3 116.9 993 37 3 Image --
1987 2 6 06 -19.8 116.7 994 35 3 Image --
1987 2 6 12 -20.1 116.0 995 35 3 Image --
1987 2 6 18 -20.2 115.3 997 31 2 Image --
1987 2 7 00 -20.0 114.6 998 29 2 Image --
1987 2 7 06 -19.4 113.8 998 29 2 Image --
1987 2 7 12 -19.1 113.4 999 29 2 Image --
1987 2 7 18 -19.1 113.0 999 29 2 Image --
1987 2 8 00 -19.2 112.4 999 29 2 Image --
1987 2 8 06 -19.5 111.9 999 29 2 Image --
1987 2 8 12 -19.7 111.6 999 29 2 Image --
1987 2 8 18 -19.8 111.4 999 29 2 Image --
1987 2 9 00 -19.9 111.0 1000 27 2 Image --
< Cyclone 198702 1987 Season Cyclone 198704 >

Help